Time;durP1;ratioP1;P1;durP2;ratioP2;P2;SDS_P1;SDS_P2;PMS_P1;PMS_P2;Temp;Humidity;BMP_temperature;BMP_pressure;BME280_temperature;BME280_humidity;BME280_pressure;Samples;Min_cycle;Max_cycle;Signal;HPM_P1;HPM_P2
2023/11/30 00:01:39;;;;;;;6.90;5.10;;;0.10;99.90;;;-141.84;96.69;31250.41;5019838;28;20226;-75
2023/11/30 00:04:08;;;;;;;6.50;5.70;;;0.00;99.90;;;-141.84;98.10;40402.94;5018472;28;20227;-72
2023/11/30 00:06:38;;;;;;;6.67;5.43;;;0.10;99.90;;;-141.84;98.00;39201.81;5017691;28;20230;-74
2023/11/30 00:09:08;;;;;;;6.73;5.40;;;0.00;99.90;;;-141.84;99.50;48108.81;5018478;28;20537;-73
2023/11/30 00:11:36;;;;;;;7.73;5.23;;;-0.10;99.90;;;-141.84;100.00;52565.75;5017434;28;20450;-75
2023/11/30 00:14:04;;;;;;;7.03;5.13;;;-0.10;99.90;;;-141.84;100.00;58341.03;5015858;28;20246;-76
2023/11/30 00:16:32;;;;;;;6.73;5.20;;;-0.10;99.90;;;-141.84;100.00;62546.50;5016829;28;20313;-75
2023/11/30 00:19:01;;;;;;;8.23;5.60;;;-0.10;99.90;;;-141.84;100.00;63861.66;5015048;28;20278;-75
2023/11/30 00:21:29;;;;;;;6.03;5.20;;;-0.10;99.90;;;-141.84;100.00;58341.03;5015692;28;20276;-75
2023/11/30 00:23:57;;;;;;;5.97;5.27;;;0.10;99.90;;;-141.84;99.83;52041.16;5015576;28;20225;-73
2023/11/30 00:26:27;;;;;;;8.97;5.20;;;-0.10;99.90;;;-141.84;99.30;48632.88;5014190;28;20299;-74
2023/11/30 00:28:55;;;;;;;6.53;5.03;;;-0.10;99.90;;;-141.84;98.82;46013.16;5013881;28;20259;-72
2023/11/30 00:31:23;;;;;;;7.77;5.93;;;0.00;99.90;;;-141.84;99.07;47584.78;5013426;28;20240;-76
2023/11/30 00:33:55;;;;;;;7.77;5.87;;;-0.10;99.90;;;-141.84;99.14;47846.78;5013922;28;20254;-74
2023/11/30 00:36:23;;;;;;;8.33;6.60;;;-0.10;99.90;;;-141.84;99.03;46798.88;5013071;28;20205;-74
2023/11/30 00:38:52;;;;;;;7.67;6.87;;;-0.10;99.90;;;-141.84;99.24;48370.84;5013856;28;20212;-73
2023/11/30 00:41:20;;;;;;;8.30;6.70;;;0.00;99.90;;;-141.84;98.53;45751.28;5011108;28;20730;-74
2023/11/30 00:43:50;;;;;;;5.77;5.17;;;0.00;99.90;;;-141.84;98.14;42610.09;5010175;28;20217;-74
2023/11/30 00:46:18;;;;;;;6.00;5.40;;;0.10;99.90;;;-141.84;97.60;39892.22;5010164;28;20338;-76
2023/11/30 00:48:46;;;;;;;7.77;6.10;;;0.10;99.90;;;-141.84;94.57;27324.53;5011739;28;20232;-74
2023/11/30 00:51:15;;;;;;;7.47;5.80;;;0.20;99.90;;;-141.84;93.52;23243.94;4998213;28;20773;-74
2023/11/30 00:53:43;;;;;;;8.17;6.23;;;0.20;99.90;;;-141.84;93.83;23516.53;4992028;28;20706;-75
2023/11/30 00:56:12;;;;;;;8.07;7.27;;;0.20;99.90;;;-141.84;94.42;24615.19;5007688;28;20316;-75
2023/11/30 00:58:40;;;;;;;8.43;6.97;;;0.20;99.90;;;-141.84;95.54;27511.88;5011255;28;20242;-74
2023/11/30 01:01:10;;;;;;;10.03;7.77;;;0.20;99.90;;;-141.84;96.73;33124.06;5011373;28;20321;-74
2023/11/30 01:03:38;;;;;;;7.87;6.60;;;0.30;99.90;;;-141.84;97.60;38066.34;5011641;28;20228;-75
2023/11/30 01:06:08;;;;;;;6.73;5.77;;;0.20;99.90;;;-141.84;98.45;43656.88;5011653;28;20211;-75
2023/11/30 01:08:36;;;;;;;7.93;6.30;;;0.20;99.90;;;-141.84;99.12;47584.78;5012149;28;20726;-73
2023/11/30 01:11:05;;;;;;;8.00;6.13;;;0.20;99.90;;;-141.84;98.74;47060.84;5013144;28;20235;-74
2023/11/30 01:13:33;;;;;;;7.63;5.47;;;0.20;99.90;;;-141.84;98.05;42610.09;5012294;28;20320;-73
2023/11/30 01:16:01;;;;;;;7.77;5.53;;;0.30;99.90;;;-141.84;98.64;44965.75;5010795;28;20682;-74
2023/11/30 01:18:31;;;;;;;6.57;5.17;;;0.30;99.90;;;-141.84;99.39;48632.88;5011115;28;20211;-73
2023/11/30 01:20:59;;;;;;;8.57;5.70;;;0.20;99.90;;;-141.84;99.90;52041.16;5011239;28;20574;-74
2023/11/30 01:23:27;;;;;;;7.97;5.73;;;0.30;99.90;;;-141.84;97.77;42348.44;5010885;28;20269;-73
2023/11/30 01:25:55;;;;;;;7.87;5.67;;;0.30;99.90;;;-141.84;97.24;37584.50;5010519;28;20657;-72
2023/11/30 01:28:24;;;;;;;6.97;6.10;;;0.30;99.90;;;-141.84;97.03;36602.63;5010611;28;20226;-73
2023/11/30 01:30:52;;;;;;;8.33;5.90;;;0.30;99.90;;;-141.84;95.37;28691.13;5010521;28;20314;-75
2023/11/30 01:33:20;;;;;;;7.40;6.30;;;0.40;99.90;;;-141.84;95.33;27750.13;5010648;28;20318;-73
2023/11/30 01:35:49;;;;;;;8.13;5.87;;;0.30;99.90;;;-141.84;95.75;29220.78;5011210;28;20261;-73
2023/11/30 01:38:18;;;;;;;8.43;6.20;;;0.30;99.90;;;-141.84;96.19;31344.16;5010744;28;20594;-73
2023/11/30 01:40:47;;;;;;;7.27;5.77;;;0.40;99.90;;;-141.84;97.34;36894.50;5010428;28;20336;-74
2023/11/30 01:43:19;;;;;;;8.37;6.40;;;0.30;99.90;;;-141.84;98.18;43133.44;5010544;28;20747;-75
2023/11/30 01:45:48;;;;;;;8.80;6.43;;;0.30;99.90;;;-141.84;98.31;43918.63;5010453;28;20269;-74
2023/11/30 01:48:27;;;;;;;8.97;6.93;;;0.30;99.90;;;-141.84;98.44;44442.13;5010509;28;20277;-74
2023/11/30 01:50:56;;;;;;;8.87;6.80;;;0.30;99.90;;;-141.84;98.22;43918.63;5011163;28;20218;-76
2023/11/30 01:53:25;;;;;;;9.13;7.67;;;0.30;99.90;;;-141.84;97.98;41825.19;5009976;28;20442;-75
2023/11/30 01:55:53;;;;;;;8.47;7.50;;;0.30;99.90;;;-141.84;97.24;37484.47;5009703;28;20223;-74
2023/11/30 01:58:21;;;;;;;7.87;6.80;;;0.30;99.90;;;-141.84;97.28;38372.66;5010402;28;20306;-73
2023/11/30 02:00:52;;;;;;;9.10;7.27;;;0.30;99.90;;;-141.84;97.64;40778.88;5010424;28;20296;-74
2023/11/30 02:03:20;;;;;;;9.47;7.57;;;0.30;99.90;;;-141.84;97.51;39622.56;5010303;28;20632;-75
2023/11/30 02:05:53;;;;;;;9.93;6.70;;;0.40;99.90;;;-141.84;98.42;44180.38;5010999;28;20249;-74
2023/11/30 02:08:23;;;;;;;10.67;6.83;;;0.40;99.90;;;-141.84;99.42;49943.41;5010182;28;20579;-74
2023/11/30 02:10:51;;;;;;;9.10;6.87;;;0.30;99.90;;;-141.84;100.00;53877.56;5010296;28;20226;-73
2023/11/30 02:13:19;;;;;;;8.23;6.10;;;0.30;99.90;;;-141.84;98.73;48632.88;5010347;28;20266;-74
2023/11/30 02:15:47;;;;;;;9.80;6.53;;;0.40;99.90;;;-141.84;96.67;36388.31;5010687;28;20311;-74
2023/11/30 02:18:16;;;;;;;8.43;6.17;;;0.50;99.90;;;-141.84;96.92;36216.88;5010589;28;20207;-69
2023/11/30 02:20:44;;;;;;;8.23;6.10;;;0.50;99.90;;;-141.84;97.54;39843.19;5010925;28;20556;-75
2023/11/30 02:23:14;;;;;;;8.50;6.30;;;0.50;99.90;;;-141.84;98.74;45751.28;5010100;28;20307;-74
2023/11/30 02:25:42;;;;;;;8.70;6.83;;;0.50;99.90;;;-141.84;99.38;49943.41;5010186;28;20601;-72
2023/11/30 02:28:16;;;;;;;8.57;5.90;;;0.40;99.90;;;-141.84;98.85;47846.78;5009659;28;20223;-75
2023/11/30 02:30:46;;;;;;;9.17;6.33;;;0.40;99.90;;;-141.84;97.71;43395.16;5010214;28;20260;-74
2023/11/30 02:33:14;;;;;;;7.73;6.07;;;0.40;99.90;;;-141.84;97.57;39097.63;5010334;28;20241;-73
2023/11/30 02:35:43;;;;;;;7.40;5.93;;;0.40;99.90;;;-141.84;99.31;48108.81;5010331;28;20227;-74
2023/11/30 02:38:12;;;;;;;7.57;6.10;;;0.30;99.90;;;-141.84;100.00;56239.94;5009952;28;20500;-74
2023/11/30 02:40:40;;;;;;;10.83;6.63;;;0.30;99.90;;;-141.84;100.00;62546.50;5009873;28;20227;-75
2023/11/30 02:43:09;;;;;;;8.43;6.50;;;0.30;99.90;;;-141.84;100.00;62546.50;5009898;28;20259;-77
2023/11/30 02:45:37;;;;;;;8.97;6.67;;;0.30;99.90;;;-141.84;99.34;51516.59;5008373;28;20271;-78
2023/11/30 02:48:05;;;;;;;6.87;5.70;;;0.30;99.90;;;-141.84;99.86;52303.44;5009201;28;20198;-76
2023/11/30 02:50:34;;;;;;;8.63;6.50;;;0.40;99.90;;;-141.84;99.27;52303.44;5008163;28;20242;-75
2023/11/30 02:53:02;;;;;;;8.77;6.70;;;0.40;99.90;;;-141.84;96.47;36596.50;5006706;28;20313;-77
2023/11/30 02:55:32;;;;;;;10.23;7.40;;;0.50;99.90;;;-141.84;94.22;26308.56;5009354;28;20789;-75
2023/11/30 02:58:00;;;;;;;10.23;6.43;;;0.60;99.90;;;-141.84;92.53;22035.84;5009687;28;20671;-75
2023/11/30 03:00:28;;;;;;;8.57;6.87;;;0.70;99.90;;;-141.84;91.67;21240.81;5010027;28;20298;-77
2023/11/30 03:02:56;;;;;;;11.83;6.90;;;0.70;99.90;;;-141.84;94.22;24139.06;5006742;28;20611;-75
2023/11/30 03:05:24;;;;;;;11.47;7.13;;;0.70;99.90;;;-141.84;95.79;30349.56;4992527;28;20225;-75
2023/11/30 03:07:52;;;;;;;8.67;6.43;;;0.60;99.90;;;-141.84;97.87;40135.31;4993924;28;20309;-76
2023/11/30 03:10:20;;;;;;;11.53;7.23;;;0.60;99.90;;;-141.84;100.00;55977.41;4993482;28;20230;-75
2023/11/30 03:12:52;;;;;;;9.97;7.67;;;0.50;99.90;;;-141.84;100.00;62809.50;4997525;28;20690;-74
2023/11/30 03:15:22;;;;;;;10.77;7.63;;;0.40;99.90;;;-141.84;100.00;61757.66;5013019;28;20214;-73
2023/11/30 03:17:50;;;;;;;11.13;7.53;;;0.40;99.90;;;-141.84;100.00;67809.63;5013441;28;20202;-72
2023/11/30 03:20:18;;;;;;;11.80;8.00;;;0.50;99.90;;;-141.84;100.00;63072.50;5013205;28;20249;-74
2023/11/30 03:22:46;;;;;;;12.80;7.70;;;0.60;99.90;;;-141.84;100.00;64124.72;5012901;28;20233;-74
2023/11/30 03:25:15;;;;;;;9.90;7.60;;;0.60;99.90;;;-141.84;100.00;72288.75;5012810;28;20313;-75
2023/11/30 03:27:43;;;;;;;11.30;8.07;;;0.60;99.90;;;-141.84;100.00;70970.84;5012807;28;20226;-76
2023/11/30 03:30:13;;;;;;;12.33;8.60;;;0.60;99.90;;;-141.84;100.00;72816.03;5013468;28;20210;-74
2023/11/30 03:32:41;;;;;;;11.23;8.10;;;0.60;99.90;;;-141.84;100.00;75717.34;5013135;28;20276;-76
2023/11/30 03:35:10;;;;;;;10.20;7.80;;;0.60;99.90;;;-141.84;100.00;74925.88;5012702;28;20239;-74
2023/11/30 03:37:40;;;;;;;10.43;8.23;;;0.60;99.90;;;-141.84;100.00;79148.88;5012741;28;20231;-74
2023/11/30 03:40:10;;;;;;;11.53;8.53;;;0.50;99.90;;;-141.84;100.00;78884.81;5012851;28;20232;-74
2023/11/30 03:42:38;;;;;;;11.00;7.97;;;0.50;99.90;;;-141.84;100.00;81262.06;5012446;28;20258;-74
2023/11/30 03:45:07;;;;;;;12.53;8.10;;;0.50;99.90;;;-141.84;100.00;86549.84;5013205;28;20199;-73
2023/11/30 03:47:37;;;;;;;14.20;9.03;;;0.40;99.90;;;-141.84;100.00;90255.47;5012522;28;20601;-75
2023/11/30 03:50:06;;;;;;;12.27;9.03;;;0.50;99.90;;;-141.84;100.00;91844.63;5012558;28;20230;-72
2023/11/30 03:52:34;;;;;;;11.03;8.47;;;0.40;99.90;;;-141.84;100.00;93699.44;5012522;28;20309;-76
2023/11/30 03:55:02;;;;;;;12.93;8.27;;;0.40;99.90;;;-141.84;100.00;92904.41;5012121;28;20237;-74
2023/11/30 03:57:30;;;;;;;12.07;8.30;;;0.40;99.90;;;-141.84;100.00;95555.09;5012369;28;20582;-75
2023/11/30 03:59:59;;;;;;;11.40;8.27;;;0.40;99.90;;;-141.84;100.00;93964.47;5012644;28;20297;-74
2023/11/30 04:02:27;;;;;;;14.40;9.30;;;0.40;99.90;;;-141.84;100.00;95289.94;5012241;28;20353;-74
2023/11/30 04:04:57;;;;;;;11.57;8.23;;;0.40;99.90;;;-141.84;100.00;97942.19;5012110;28;20262;-75
2023/11/30 04:07:29;;;;;;;12.30;9.33;;;0.10;99.90;;;-141.84;100.00;101392.69;5012349;28;20338;-75
2023/11/30 04:09:57;;;;;;;13.83;8.50;;;0.10;99.90;;;-141.84;100.00;103783.25;5011894;28;20777;-75
2023/11/30 04:12:26;;;;;;;12.13;8.90;;;0.00;99.90;;;-141.84;100.00;104314.66;5012127;28;20207;-73
2023/11/30 04:14:54;;;;;;;15.60;9.67;;;0.00;99.90;;;-141.84;100.00;105643.53;5011736;28;20426;-74
2023/11/30 04:17:23;;;;;;;13.27;9.30;;;0.10;99.90;;;-141.84;100.00;105111.94;5011977;28;20230;-73
2023/11/30 04:19:51;;;;;;;12.83;9.60;;;-0.10;99.90;;;-141.84;100.00;108036.56;5012020;28;20336;-75
2023/11/30 04:22:20;;;;;;;13.90;9.37;;;-0.20;99.90;;;-141.84;100.00;110431.03;5011668;28;20329;-74
2023/11/30 04:24:48;;;;;;;14.10;9.13;;;-0.30;99.90;;;-141.84;100.00;112826.88;5011964;28;20652;-74
2023/11/30 04:27:16;;;;;;;13.83;9.17;;;-0.30;99.90;;;-141.84;100.00;113359.50;5011885;28;20230;-70
2023/11/30 04:29:44;;;;;;;13.70;9.57;;;-0.40;99.90;;;-141.84;100.00;114424.91;5012085;28;20207;-74
2023/11/30 04:32:12;;;;;;;15.13;10.47;;;-0.40;99.90;;;-141.84;100.00;114424.91;5011521;28;20248;-73
2023/11/30 04:34:40;;;;;;;15.13;10.10;;;-0.40;99.90;;;-141.84;100.00;116023.56;5011294;28;20227;-73
2023/11/30 04:37:09;;;;;;;15.60;10.40;;;-0.50;99.90;;;-141.84;100.00;116290.06;5011656;28;20312;-75
2023/11/30 04:39:38;;;;;;;15.60;9.90;;;-0.50;99.90;;;-141.84;100.00;116823.13;5011508;28;20265;-73
2023/11/30 04:42:07;;;;;;;15.00;9.80;;;-0.50;99.90;;;-141.84;100.00;117622.84;5012046;28;20207;-74
2023/11/30 04:44:35;;;;;;;15.10;9.50;;;-0.60;99.90;;;-141.84;100.00;118422.72;5010993;28;20229;-75
2023/11/30 04:47:04;;;;;;;14.87;10.67;;;-0.60;99.90;;;-141.84;100.00;119222.75;5009710;28;20241;-75
2023/11/30 04:49:32;;;;;;;16.40;10.10;;;-0.60;99.90;;;-141.84;100.00;119222.75;4994414;28;20231;-74
2023/11/30 04:52:00;;;;;;;15.50;10.20;;;-0.60;99.90;;;-141.84;100.00;119222.75;4996043;28;20306;-76
2023/11/30 04:54:28;;;;;;;16.03;10.13;;;-0.60;99.90;;;-141.84;100.00;119224.81;5010968;28;20317;-75
2023/11/30 04:56:58;;;;;;;17.47;9.33;;;-0.60;99.90;;;-141.84;100.00;118689.38;5011840;28;20682;-74
2023/11/30 04:59:26;;;;;;;13.07;9.37;;;-0.50;99.90;;;-141.84;100.00;118422.72;5010981;28;20250;-74
2023/11/30 05:01:54;;;;;;;14.23;10.00;;;-0.40;99.90;;;-141.84;100.00;117889.44;5011186;28;20309;-75
2023/11/30 05:04:22;;;;;;;15.90;10.37;;;-0.50;99.90;;;-141.84;100.00;118422.72;5004354;28;20720;-73
2023/11/30 05:06:51;;;;;;;15.83;9.90;;;-0.50;99.90;;;-141.84;100.00;117622.84;4991647;28;20636;-76
2023/11/30 05:09:19;;;;;;;17.33;11.00;;;-0.40;99.90;;;-141.84;100.00;117089.69;4991372;28;20301;-74
2023/11/30 05:11:47;;;;;;;16.47;10.03;;;-0.40;99.90;;;-141.84;100.00;116823.13;5008289;28;20675;-74
2023/11/30 05:14:17;;;;;;;16.23;10.73;;;-0.50;99.90;;;-141.84;100.00;117089.69;5010682;28;20227;-76
2023/11/30 05:16:45;;;;;;;16.20;10.63;;;-0.40;99.90;;;-141.84;100.00;117622.84;5011120;28;20252;-74
2023/11/30 05:19:13;;;;;;;15.07;9.93;;;-0.40;99.90;;;-141.84;100.00;116823.13;5010826;28;20257;-76
2023/11/30 05:21:41;;;;;;;14.90;10.53;;;-0.40;99.90;;;-141.84;100.00;118156.06;5010915;28;20491;-72
2023/11/30 05:24:09;;;;;;;17.40;10.90;;;-0.50;99.90;;;-141.84;100.00;118689.38;5011251;28;20202;-74
2023/11/30 05:26:38;;;;;;;17.90;11.57;;;-0.40;99.90;;;-141.84;100.00;118956.03;5009905;28;20227;-75
2023/11/30 05:29:07;;;;;;;21.33;11.53;;;-0.50;99.90;;;-141.84;100.00;119224.81;5010534;28;20314;-74
2023/11/30 05:31:36;;;;;;;16.40;10.70;;;-0.50;99.90;;;-141.84;100.00;119224.81;5010337;28;20609;-74
2023/11/30 05:34:05;;;;;;;15.90;10.07;;;-0.50;99.90;;;-141.84;100.00;119224.81;5011205;28;20234;-74
2023/11/30 05:36:34;;;;;;;17.40;11.30;;;-0.60;99.90;;;-141.84;100.00;119224.81;5010765;28;20275;-74
2023/11/30 05:39:03;;;;;;;17.07;10.93;;;-0.60;99.90;;;-141.84;100.00;119224.81;5011123;28;20212;-73
2023/11/30 05:41:31;;;;;;;16.83;10.53;;;-0.50;99.90;;;-141.84;100.00;119224.81;5010060;28;20284;-76
2023/11/30 05:44:00;;;;;;;15.60;11.00;;;-0.50;99.90;;;-141.84;100.00;119224.81;5010248;28;20222;-75
2023/11/30 05:46:28;;;;;;;16.60;11.43;;;-0.60;99.90;;;-141.84;100.00;119224.81;5010777;28;20227;-74
2023/11/30 05:48:57;;;;;;;17.57;10.37;;;-0.60;99.90;;;-141.84;100.00;119224.81;5010626;28;20233;-75
2023/11/30 05:51:26;;;;;;;16.40;11.23;;;-0.60;99.90;;;-141.84;100.00;119224.81;5010670;28;20244;-73
2023/11/30 05:53:54;;;;;;;16.57;11.47;;;-0.60;99.90;;;-141.84;100.00;119224.81;5011541;28;20272;-75
2023/11/30 05:56:23;;;;;;;20.10;11.30;;;-0.70;99.90;;;-141.84;100.00;119224.81;5010310;28;20231;-75
2023/11/30 05:58:51;;;;;;;16.40;11.03;;;-0.70;99.90;;;-141.84;100.00;119224.81;5010666;28;20237;-74
2023/11/30 06:01:19;;;;;;;18.57;12.23;;;-0.70;99.90;;;-141.84;100.00;119224.81;5010497;28;20763;-72
2023/11/30 06:03:47;;;;;;;16.13;10.57;;;-0.70;99.90;;;-141.84;100.00;119224.81;5010262;28;20734;-74
2023/11/30 06:06:17;;;;;;;19.27;12.07;;;-0.80;99.90;;;-141.84;100.00;119224.81;5010964;28;20195;-74
2023/11/30 06:08:46;;;;;;;16.33;11.50;;;-0.80;99.90;;;-141.84;100.00;119224.81;5010928;28;20222;-73
2023/11/30 06:11:16;;;;;;;18.00;12.43;;;-0.80;99.90;;;-141.84;100.00;119224.81;5009812;28;20729;-74
2023/11/30 06:13:45;;;;;;;18.47;12.43;;;-0.90;99.90;;;-141.84;100.00;119224.81;5010367;28;20317;-74
2023/11/30 06:16:13;;;;;;;21.17;13.67;;;-0.90;99.90;;;-141.84;100.00;119224.81;5010323;28;20237;-74
2023/11/30 06:18:41;;;;;;;17.93;12.87;;;-0.90;99.90;;;-141.84;100.00;119224.81;5010449;28;20227;-75
2023/11/30 06:21:10;;;;;;;19.77;12.43;;;-0.90;99.90;;;-141.84;100.00;119224.81;5010473;28;20793;-75
2023/11/30 06:23:39;;;;;;;18.20;13.10;;;-1.00;99.90;;;-141.84;100.00;119224.81;5010350;28;20237;-75
2023/11/30 06:26:08;;;;;;;19.47;13.03;;;-1.00;99.90;;;-141.84;100.00;119224.81;5010115;28;20761;-75
2023/11/30 06:28:36;;;;;;;19.10;11.67;;;-1.10;99.90;;;-141.84;100.00;119224.81;5010355;28;20226;-73
2023/11/30 06:31:06;;;;;;;20.57;12.37;;;-1.10;99.90;;;-141.84;100.00;119224.81;5010423;28;20258;-74
2023/11/30 06:33:34;;;;;;;16.67;12.13;;;-1.10;99.90;;;-141.84;100.00;119224.81;5010256;28;20582;-74
2023/11/30 06:36:04;;;;;;;16.67;12.07;;;-1.10;99.90;;;-141.84;100.00;119224.81;5010563;28;20278;-75
2023/11/30 06:38:32;;;;;;;18.93;11.63;;;-1.20;99.90;;;-141.84;100.00;119224.81;5011661;28;20790;-74
2023/11/30 06:41:02;;;;;;;20.07;11.60;;;-1.20;99.90;;;-141.84;100.00;119224.81;5013729;28;20260;-76
2023/11/30 06:43:31;;;;;;;19.67;12.20;;;-1.10;99.90;;;-141.84;100.00;119224.81;5013583;28;20690;-76
2023/11/30 06:45:59;;;;;;;19.70;12.47;;;-1.20;99.90;;;-141.84;100.00;119224.81;5013717;28;20326;-75
2023/11/30 06:48:27;;;;;;;19.90;12.80;;;-1.20;99.90;;;-141.84;100.00;119224.81;5013844;28;20299;-74
2023/11/30 06:50:55;;;;;;;18.87;12.10;;;-1.10;99.90;;;-141.84;100.00;119224.81;5014038;28;20234;-75
2023/11/30 06:53:23;;;;;;;20.17;12.77;;;-1.10;99.90;;;-141.84;100.00;119224.81;5013546;28;20222;-74
2023/11/30 06:55:51;;;;;;;20.37;13.63;;;-1.10;99.90;;;-141.84;100.00;119224.81;5013143;28;20253;-74
2023/11/30 06:58:21;;;;;;;20.70;13.83;;;-1.00;99.90;;;-141.84;100.00;119224.81;5013697;28;20254;-74
2023/11/30 07:00:50;;;;;;;24.63;13.80;;;-1.20;99.90;;;-141.84;100.00;119224.81;5013311;28;20222;-73
2023/11/30 07:03:18;;;;;;;21.17;13.13;;;-1.10;99.90;;;-141.84;100.00;119224.81;5013400;28;20210;-75
2023/11/30 07:05:46;;;;;;;20.10;12.20;;;-1.10;99.90;;;-141.84;100.00;119224.81;5013740;28;20756;-75
2023/11/30 07:08:14;;;;;;;16.33;11.67;;;-1.10;99.90;;;-141.84;100.00;119224.81;5013195;28;20226;-76
2023/11/30 07:10:43;;;;;;;18.93;11.83;;;-1.10;99.90;;;-141.84;100.00;119224.81;5013306;28;20285;-74
2023/11/30 07:13:11;;;;;;;21.10;11.50;;;-1.20;99.90;;;-141.84;100.00;119224.81;5013097;28;20308;-76
2023/11/30 07:15:40;;;;;;;20.23;12.53;;;-1.10;99.90;;;-141.84;100.00;119224.81;5013120;28;20637;-75
2023/11/30 07:18:11;;;;;;;19.20;12.43;;;-1.10;99.90;;;-141.84;100.00;119224.81;5013254;28;20693;-74
2023/11/30 07:20:39;;;;;;;18.67;12.30;;;-1.10;99.90;;;-141.84;100.00;119224.81;5012028;28;20229;-73
2023/11/30 07:23:07;;;;;;;19.60;11.90;;;-1.10;99.90;;;-141.84;100.00;119224.81;5012810;28;20282;-73
2023/11/30 07:25:35;;;;;;;17.77;11.30;;;-1.10;99.90;;;-141.84;100.00;119224.81;5012859;28;20230;-73
2023/11/30 07:28:04;;;;;;;19.00;12.40;;;-1.10;99.90;;;-141.84;100.00;119224.81;5010684;28;20314;-73
2023/11/30 07:30:32;;;;;;;17.80;12.10;;;-1.10;99.90;;;-141.84;100.00;119224.81;5012736;28;20206;-73
2023/11/30 07:33:04;;;;;;;20.87;12.17;;;-1.10;99.90;;;-141.84;100.00;119224.81;5012839;28;20269;-73
2023/11/30 07:35:32;;;;;;;20.70;11.90;;;-1.10;99.90;;;-141.84;100.00;119224.81;5012527;28;20802;-73
2023/11/30 07:38:00;;;;;;;19.00;12.37;;;-1.00;99.90;;;-141.84;100.00;119224.81;5012430;28;20254;-72
2023/11/30 07:40:29;;;;;;;23.67;13.77;;;-1.00;99.90;;;-141.84;100.00;119224.81;5012443;28;20257;-62
2023/11/30 07:42:57;;;;;;;19.63;13.20;;;-1.00;99.90;;;-141.84;100.00;119224.81;5012258;28;20258;-60
2023/11/30 07:45:26;;;;;;;19.33;13.00;;;-0.90;99.90;;;-141.84;100.00;119224.81;5012683;28;20272;-61
2023/11/30 07:47:56;;;;;;;20.90;13.00;;;-0.80;99.90;;;-141.84;100.00;119224.81;5013216;28;20202;-61
2023/11/30 07:50:27;;;;;;;22.63;13.80;;;-0.70;99.90;;;-141.84;100.00;119224.81;5011676;28;20230;-61
2023/11/30 07:52:55;;;;;;;22.23;13.53;;;-0.60;99.90;;;-141.84;100.00;119224.81;5011362;28;20292;-62
2023/11/30 07:55:23;;;;;;;20.57;14.13;;;-0.60;99.90;;;-141.84;100.00;119224.81;5011849;28;20798;-61
2023/11/30 07:57:51;;;;;;;21.30;13.83;;;-0.50;99.90;;;-141.84;100.00;119224.81;5011861;28;20725;-60
2023/11/30 08:00:23;;;;;;;20.23;13.27;;;-0.40;99.90;;;-141.84;100.00;119224.81;5012388;28;20281;-62
2023/11/30 08:02:52;;;;;;;21.17;14.03;;;-0.40;99.90;;;-141.84;100.00;119224.81;5012228;28;20709;-61
2023/11/30 08:05:22;;;;;;;21.13;14.80;;;-0.40;99.90;;;-141.84;100.00;119224.81;5012082;28;20227;-61
2023/11/30 08:07:53;;;;;;;24.07;16.97;;;-0.40;99.90;;;-141.84;100.00;119224.81;5012182;28;20309;-62
2023/11/30 08:10:21;;;;;;;21.73;16.27;;;-0.30;99.90;;;-141.84;100.00;119224.81;5012118;28;20246;-61
2023/11/30 08:12:50;;;;;;;27.00;18.60;;;-0.30;99.90;;;-141.84;100.00;119224.81;5011821;28;20776;-61
2023/11/30 08:15:18;;;;;;;27.07;18.60;;;-0.30;99.90;;;-141.84;100.00;119224.81;5012110;28;20234;-62
2023/11/30 08:17:47;;;;;;;27.17;18.53;;;-0.30;99.90;;;-141.84;100.00;119224.81;5012491;28;20329;-63
2023/11/30 08:20:15;;;;;;;30.50;21.80;;;-0.30;99.90;;;-141.84;100.00;119224.81;5011992;28;20281;-62
2023/11/30 08:22:44;;;;;;;28.20;20.60;;;-0.30;99.90;;;-141.84;100.00;119224.81;5011647;28;20258;-62
2023/11/30 08:25:16;;;;;;;26.87;18.20;;;-0.30;99.90;;;-141.84;100.00;119224.81;5011952;28;20227;-61
2023/11/30 08:27:45;;;;;;;24.83;16.70;;;-0.20;99.90;;;-141.84;100.00;119224.81;5011775;28;20301;-62
2023/11/30 08:30:20;;;;;;;23.90;16.83;;;-0.20;99.90;;;-141.84;100.00;119224.81;5011513;28;20227;-62
2023/11/30 08:32:48;;;;;;;27.53;16.37;;;0.00;99.90;;;-141.84;100.00;119224.81;5011929;28;20611;-61
2023/11/30 08:35:17;;;;;;;24.47;15.33;;;0.30;99.90;;;-141.84;100.00;119224.81;5011797;28;20298;-62
2023/11/30 08:37:45;;;;;;;21.63;14.93;;;0.40;99.90;;;-141.84;100.00;119224.81;5011653;28;20686;-62
2023/11/30 08:40:15;;;;;;;19.90;14.17;;;0.50;99.90;;;-141.84;100.00;119224.81;5011722;28;20254;-63
2023/11/30 08:42:43;;;;;;;20.83;14.10;;;0.70;99.90;;;-141.84;100.00;119224.81;5012044;28;20249;-62
2023/11/30 08:45:11;;;;;;;21.10;14.50;;;0.90;99.90;;;-141.84;100.00;119224.81;5011875;28;20301;-61
2023/11/30 08:47:41;;;;;;;19.03;13.17;;;1.20;99.90;;;-141.84;100.00;119224.81;5010758;28;20230;-63
2023/11/30 08:50:10;;;;;;;19.37;13.30;;;1.30;99.90;;;-141.84;100.00;119224.81;5011684;28;20230;-64
2023/11/30 08:52:39;;;;;;;16.47;12.27;;;1.30;99.90;;;-141.84;100.00;119224.81;5011439;28;20226;-64
2023/11/30 08:55:07;;;;;;;16.47;12.10;;;1.30;99.90;;;-141.84;100.00;119224.81;5010240;28;20241;-68
2023/11/30 08:57:37;;;;;;;16.87;11.60;;;1.30;99.90;;;-141.84;100.00;119224.81;5011662;28;20288;-62
2023/11/30 09:00:11;;;;;;;15.30;11.43;;;1.30;99.90;;;-141.84;100.00;119224.81;5010822;28;20202;-62
2023/11/30 09:02:40;;;;;;;16.00;11.47;;;1.30;99.90;;;-141.84;100.00;119224.81;5009782;28;20272;-64
2023/11/30 09:05:09;;;;;;;17.50;11.97;;;1.30;99.90;;;-141.84;100.00;119224.81;5009439;28;20306;-63
2023/11/30 09:07:37;;;;;;;16.47;12.30;;;1.40;99.90;;;-141.84;100.00;118689.38;5010907;28;20273;-64
2023/11/30 09:10:06;;;;;;;17.13;11.93;;;1.40;99.90;;;-141.84;100.00;115757.06;5010775;28;20801;-63
2023/11/30 09:12:34;;;;;;;15.47;11.33;;;1.50;99.90;;;-141.84;100.00;110963.31;5008899;28;20669;-74
2023/11/30 09:15:08;;;;;;;17.27;11.83;;;1.60;99.90;;;-141.84;100.00;109632.72;5013620;28;20286;-73
2023/11/30 09:17:37;;;;;;;18.37;11.30;;;1.60;99.90;;;-141.84;100.00;109100.59;5012216;28;20230;-70
2023/11/30 09:20:08;;;;;;;15.90;13.47;;;1.70;99.90;;;-141.84;100.00;105909.34;5011735;28;20227;-77
2023/11/30 09:22:37;;;;;;;14.70;12.03;;;1.80;99.90;;;-141.84;100.00;101658.25;5011658;28;20198;-75
2023/11/30 09:25:07;;;;;;;14.73;10.57;;;1.90;99.90;;;-141.84;100.00;90785.09;5011407;28;20205;-70
2023/11/30 09:27:35;;;;;;;13.87;10.50;;;2.00;99.90;;;-141.84;100.00;69126.50;5010217;28;20310;-70
2023/11/30 09:30:07;;;;;;;15.37;10.77;;;2.00;99.90;;;-141.84;100.00;61757.66;5010496;28;20236;-70
2023/11/30 09:32:36;;;;;;;14.03;11.00;;;2.00;99.90;;;-141.84;100.00;55189.84;5010343;28;20260;-70
2023/11/30 09:35:05;;;;;;;12.77;9.90;;;2.10;99.90;;;-141.84;99.37;49419.16;5010414;28;20231;-70
2023/11/30 09:37:33;;;;;;;11.97;9.47;;;2.10;99.90;;;-141.84;98.99;46275.03;5012186;28;20301;-76
2023/11/30 09:40:01;;;;;;;13.50;10.30;;;2.20;99.90;;;-141.84;97.73;39497.97;5012042;28;20289;-77
2023/11/30 09:42:30;;;;;;;15.43;11.37;;;2.30;99.90;;;-141.84;96.31;31444.06;5011904;28;20305;-76
2023/11/30 09:45:00;;;;;;;15.20;10.90;;;2.40;99.90;;;-141.84;93.92;24828.84;5012285;28;20226;-78
2023/11/30 09:47:30;;;;;;;15.07;10.37;;;2.60;99.90;;;-141.84;89.08;19271.25;5010748;28;20726;-77
2023/11/30 09:50:00;;;;;;;16.57;11.50;;;2.80;99.90;;;-141.84;87.32;18799.81;5010893;28;20233;-78
2023/11/30 09:52:29;;;;;;;15.03;11.07;;;2.80;99.90;;;-141.84;86.80;18712.47;5011225;28;20203;-77
2023/11/30 09:54:58;;;;;;;14.50;11.60;;;2.90;99.90;;;-141.84;83.46;18491.00;5010443;28;20292;-78
2023/11/30 09:57:26;;;;;;;15.53;11.33;;;2.90;99.90;;;-141.84;83.38;18529.59;5010630;28;20677;-76
2023/11/30 09:59:55;;;;;;;14.87;11.83;;;3.00;99.90;;;-141.84;80.73;18440.22;5010406;28;20628;-77
2023/11/30 10:02:25;;;;;;;14.93;11.33;;;3.10;99.90;;;-141.84;79.34;18470.69;5010864;28;20227;-75